Time;durP1;ratioP1;P1;durP2;ratioP2;P2;SDS_P1;SDS_P2;PMS_P1;PMS_P2;Temp;Humidity;BMP_temperature;BMP_pressure;BME280_temperature;BME280_humidity;BME280_pressure;Samples;Min_cycle;Max_cycle;Signal;HPM_P1;HPM_P2
2024/01/13 00:07:24;;;;;;;13.63;8.40;;;4.20;99.90;;;;;;20651439;28;20041;-41
2024/01/13 00:17:25;;;;;;;14.57;8.83;;;4.20;99.90;;;;;;20652497;28;20042;-42
2024/01/13 00:27:25;;;;;;;20.80;12.18;;;4.20;99.90;;;;;;20656007;28;20468;-42
2024/01/13 00:37:26;;;;;;;22.77;13.32;;;4.20;99.90;;;;;;20667112;28;20041;-41
2024/01/13 00:47:26;;;;;;;21.60;13.18;;;4.30;99.90;;;;;;20667319;28;20053;-41
2024/01/13 00:57:27;;;;;;;23.30;14.63;;;4.20;99.90;;;;;;20670327;28;20038;-41
2024/01/13 01:07:27;;;;;;;20.77;12.57;;;4.20;99.90;;;;;;20667145;28;20069;-41
2024/01/13 01:17:28;;;;;;;17.75;11.25;;;4.30;99.90;;;;;;20667573;28;20049;-41
2024/01/13 01:27:29;;;;;;;19.20;10.90;;;4.00;99.90;;;;;;20668008;28;20058;-41
2024/01/13 01:37:29;;;;;;;19.30;11.35;;;3.90;99.90;;;;;;20670508;28;20534;-42
2024/01/13 01:47:32;;;;;;;21.23;11.47;;;4.10;99.90;;;;;;20666483;28;20101;-41
2024/01/13 01:57:37;;;;;;;19.38;11.07;;;4.10;99.90;;;;;;20665241;28;20449;-42
2024/01/13 02:07:39;;;;;;;22.38;12.23;;;4.00;99.90;;;;;;20659082;28;20070;-42
2024/01/13 02:17:40;;;;;;;23.13;12.07;;;4.00;99.90;;;;;;20657665;28;20137;-42
2024/01/13 02:27:41;;;;;;;25.08;14.35;;;4.10;99.90;;;;;;20661378;28;20773;-40
2024/01/13 02:37:42;;;;;;;28.42;16.20;;;4.20;99.90;;;;;;20655997;28;20038;-41
2024/01/13 02:47:53;;;;;;;35.80;16.98;;;4.30;99.90;;;;;;20651405;28;20541;-42
2024/01/13 02:57:53;;;;;;;32.97;16.02;;;4.50;99.90;;;;;;20656759;28;20041;-41
2024/01/13 03:08:03;;;;;;;30.02;15.20;;;4.30;99.90;;;;;;20657897;28;20517;-41
2024/01/13 03:18:04;;;;;;;31.25;14.15;;;4.30;99.90;;;;;;20648687;28;20057;-41
2024/01/13 03:28:05;;;;;;;26.80;12.70;;;4.40;99.90;;;;;;20656605;28;20494;-41
2024/01/13 03:38:09;;;;;;;23.85;12.43;;;4.30;99.90;;;;;;20652288;28;20043;-41
2024/01/13 03:48:09;;;;;;;25.50;12.43;;;4.30;99.90;;;;;;20656285;28;20058;-41
2024/01/13 03:58:10;;;;;;;22.20;10.07;;;4.30;99.90;;;;;;20644712;28;20144;-42
2024/01/13 04:08:10;;;;;;;17.88;8.48;;;4.30;99.90;;;;;;20663425;28;21012;-42
2024/01/13 04:18:11;;;;;;;16.37;8.37;;;4.30;99.90;;;;;;20667554;28;20042;-42
2024/01/13 04:28:12;;;;;;;18.20;9.02;;;4.50;99.90;;;;;;20666752;28;21074;-42
2024/01/13 04:38:12;;;;;;;16.40;7.87;;;4.30;99.90;;;;;;20663958;28;20038;-42
2024/01/13 04:48:15;;;;;;;18.20;8.32;;;4.20;99.90;;;;;;20664207;28;20097;-41
2024/01/13 04:58:16;;;;;;;22.35;10.45;;;4.40;99.90;;;;;;20661193;28;20461;-41
2024/01/13 05:08:17;;;;;;;32.67;13.70;;;4.40;99.90;;;;;;20665101;28;20054;-41
2024/01/13 05:18:17;;;;;;;31.70;14.15;;;4.40;99.90;;;;;;20660750;28;20458;-41
2024/01/13 05:28:19;;;;;;;32.60;13.82;;;4.30;99.90;;;;;;20658605;28;20042;-42
2024/01/13 05:38:20;;;;;;;35.10;14.23;;;4.30;99.90;;;;;;20662195;28;20042;-42
2024/01/13 05:48:20;;;;;;;30.92;11.93;;;4.40;99.90;;;;;;20660562;28;20042;-42
2024/01/13 05:58:21;;;;;;;28.10;10.73;;;4.40;99.90;;;;;;20658441;28;20046;-42
2024/01/13 06:08:21;;;;;;;16.13;6.68;;;4.30;99.90;;;;;;20658116;28;20549;-42
2024/01/13 06:18:22;;;;;;;7.13;3.42;;;4.30;99.90;;;;;;20656554;28;20510;-41
2024/01/13 06:28:23;;;;;;;8.20;3.30;;;4.40;99.90;;;;;;20662256;28;20034;-42
2024/01/13 06:38:23;;;;;;;6.15;2.38;;;4.60;99.90;;;;;;20672793;28;20181;-41
2024/01/13 06:48:24;;;;;;;6.00;2.85;;;4.50;99.90;;;;;;20655598;28;20062;-41
2024/01/13 06:58:25;;;;;;;7.47;3.35;;;4.40;99.90;;;;;;20654072;28;20084;-43
2024/01/13 07:08:25;;;;;;;8.07;3.78;;;4.40;99.90;;;;;;20649598;28;20105;-42
2024/01/13 07:18:27;;;;;;;8.63;4.20;;;4.40;99.90;;;;;;20655750;28;20137;-42
2024/01/13 07:28:28;;;;;;;8.80;4.68;;;4.50;99.90;;;;;;20650564;28;20522;-42
2024/01/13 07:38:28;;;;;;;7.50;4.30;;;4.60;99.90;;;;;;20654504;28;20710;-40
2024/01/13 07:48:29;;;;;;;8.93;4.32;;;4.70;99.90;;;;;;20648197;28;20050;-42
2024/01/13 07:58:30;;;;;;;8.45;5.07;;;4.70;99.90;;;;;;20652944;28;20429;-42
2024/01/13 08:08:30;;;;;;;10.55;5.90;;;4.60;99.90;;;;;;20649000;28;20173;-42
2024/01/13 08:18:31;;;;;;;9.45;5.72;;;4.60;99.90;;;;;;20653387;28;20042;-42
2024/01/13 08:28:32;;;;;;;9.75;5.30;;;4.70;99.90;;;;;;20648016;28;20034;-41
2024/01/13 08:38:32;;;;;;;9.38;5.63;;;4.60;99.90;;;;;;20652706;28;20045;-41
2024/01/13 08:48:34;;;;;;;9.40;4.90;;;4.70;99.90;;;;;;20658935;28;20120;-41
2024/01/13 08:58:34;;;;;;;14.40;5.05;;;4.60;99.90;;;;;;20663507;28;21023;-42
2024/01/13 09:08:35;;;;;;;9.30;5.10;;;4.70;99.90;;;;;;20661634;28;20507;-41
2024/01/13 09:18:36;;;;;;;11.52;5.75;;;4.60;99.00;;;;;;20655814;28;20485;-41
2024/01/13 09:28:36;;;;;;;16.08;7.82;;;4.50;99.90;;;;;;20657373;28;20076;-41
2024/01/13 09:38:37;;;;;;;17.42;9.52;;;4.50;99.90;;;;;;20655591;28;20562;-41
2024/01/13 09:48:38;;;;;;;19.92;9.75;;;4.50;99.90;;;;;;20658930;28;20049;-40
2024/01/13 09:58:39;;;;;;;32.20;15.20;;;4.50;99.90;;;;;;20661341;28;20034;-40
2024/01/13 10:08:40;;;;;;;35.00;16.73;;;4.70;88.00;;;;;;20660668;28;20735;-41
2024/01/13 10:18:40;;;;;;;32.50;16.57;;;4.70;56.00;;;;;;20651047;28;20042;-41
2024/01/13 10:28:44;;;;;;;36.37;16.87;;;4.60;55.30;;;;;;20655585;28;20461;-42
2024/01/13 10:38:45;;;;;;;37.33;17.83;;;4.60;50.40;;;;;;20659735;28;20512;-42
2024/01/13 10:48:47;;;;;;;38.53;18.98;;;4.60;42.30;;;;;;20655364;28;20129;-41
2024/01/13 10:58:49;;;;;;;44.13;21.40;;;4.50;47.50;;;;;;20627874;28;20410;-41
2024/01/13 11:08:53;;;;;;;45.65;22.08;;;4.50;49.50;;;;;;20649368;28;20104;-41
2024/01/13 11:18:54;;;;;;;41.80;20.25;;;4.60;46.20;;;;;;20647960;28;20042;-42
2024/01/13 11:28:56;;;;;;;46.40;22.50;;;4.60;32.30;;;;;;20649651;28;20117;-41
2024/01/13 11:38:58;;;;;;;44.70;22.25;;;4.70;26.90;;;;;;20666742;28;20038;-41
2024/01/13 11:49:03;;;;;;;44.63;22.20;;;4.80;19.20;;;;;;20669189;28;20516;-41
2024/01/13 11:59:04;;;;;;;47.92;22.80;;;4.80;19.10;;;;;;20661805;28;20157;-42
2024/01/13 12:09:04;;;;;;;53.00;22.85;;;4.80;17.90;;;;;;20665903;28;20046;-42
2024/01/13 12:19:05;;;;;;;43.13;21.10;;;4.70;21.30;;;;;;20663868;28;20050;-41
2024/01/13 12:29:06;;;;;;;47.77;22.73;;;4.80;17.00;;;;;;20678135;28;20894;-41
2024/01/13 12:39:07;;;;;;;44.78;20.90;;;4.90;14.60;;;;;;20665331;28;20484;-41
2024/01/13 12:49:16;;;;;;;43.78;19.63;;;5.00;14.40;;;;;;20676267;28;20410;-41
2024/01/13 12:59:18;;;;;;;47.60;20.10;;;5.00;15.40;;;;;;20645547;28;20052;-41
2024/01/13 13:09:19;;;;;;;47.67;21.25;;;5.10;17.30;;;;;;20672873;28;20510;-42
2024/01/13 13:19:20;;;;;;;44.63;21.00;;;5.20;12.60;;;;;;20669033;28;20096;-41
2024/01/13 13:29:21;;;;;;;46.17;19.85;;;5.00;18.50;;;;;;20672868;28;20061;-42
2024/01/13 13:39:22;;;;;;;45.20;19.48;;;5.10;17.60;;;;;;20674717;28;20046;-42
2024/01/13 13:49:22;;;;;;;41.67;18.13;;;5.20;13.70;;;;;;20677611;28;20041;-42
2024/01/13 13:59:23;;;;;;;37.47;17.40;;;5.20;12.70;;;;;;20670862;28;20407;-42
2024/01/13 14:09:24;;;;;;;41.00;18.33;;;5.30;15.40;;;;;;20664425;28;20037;-42
2024/01/13 14:19:25;;;;;;;40.70;18.65;;;5.30;16.20;;;;;;20673116;28;20162;-43
2024/01/13 14:29:25;;;;;;;35.05;17.55;;;5.30;14.60;;;;;;20663161;28;20038;-42
2024/01/13 14:39:26;;;;;;;41.95;19.10;;;5.10;15.00;;;;;;20657006;28;20038;-41
2024/01/13 14:49:26;;;;;;;35.20;17.58;;;5.20;18.50;;;;;;20660836;28;20050;-42
2024/01/13 14:59:30;;;;;;;33.60;16.60;;;5.20;20.00;;;;;;20670085;28;20564;-42
2024/01/13 15:09:31;;;;;;;33.03;16.55;;;5.10;21.60;;;;;;20662791;28;20046;-41
2024/01/13 15:19:31;;;;;;;31.63;15.55;;;5.20;20.70;;;;;;20666630;28;20042;-42
2024/01/13 15:29:32;;;;;;;33.38;17.23;;;5.10;21.10;;;;;;20661417;28;20045;-41
2024/01/13 15:39:34;;;;;;;34.40;16.38;;;5.10;24.70;;;;;;20659729;28;20053;-42
2024/01/13 15:49:34;;;;;;;34.17;16.83;;;5.10;34.70;;;;;;20653315;28;20045;-42
2024/01/13 15:59:35;;;;;;;36.97;16.47;;;5.00;58.10;;;;;;20658175;28;20049;-42
2024/01/13 16:09:36;;;;;;;42.20;20.27;;;4.90;84.50;;;;;;20652391;28;20468;-42
2024/01/13 16:19:36;;;;;;;35.67;17.05;;;4.80;99.90;;;;;;20654646;28;20045;-42
2024/01/13 16:29:37;;;;;;;37.40;17.15;;;4.80;99.90;;;;;;20655552;28;20065;-42
2024/01/13 16:39:38;;;;;;;41.35;19.05;;;4.70;99.90;;;;;;20657097;28;20042;-41
2024/01/13 16:49:38;;;;;;;45.73;20.87;;;4.60;99.90;;;;;;20652221;28;20113;-41
2024/01/13 16:59:39;;;;;;;49.10;20.50;;;4.40;99.90;;;;;;20652331;28;21121;-42
2024/01/13 17:09:39;;;;;;;48.58;21.50;;;4.40;99.90;;;;;;20652667;28;20050;-42
2024/01/13 17:19:40;;;;;;;47.10;20.27;;;4.40;99.90;;;;;;20669194;28;20055;-42
2024/01/13 17:29:41;;;;;;;44.90;19.13;;;4.50;99.90;;;;;;20668607;28;20467;-40
2024/01/13 17:39:41;;;;;;;42.15;18.33;;;4.40;99.90;;;;;;20668387;28;20460;-41
2024/01/13 17:49:42;;;;;;;41.92;17.00;;;4.30;99.90;;;;;;20665048;28;20462;-42
2024/01/13 17:59:44;;;;;;;32.30;14.82;;;4.30;99.90;;;;;;20666773;28;20042;-41
2024/01/13 18:09:45;;;;;;;46.47;19.05;;;4.30;99.90;;;;;;20660525;28;20284;-42
2024/01/13 18:19:46;;;;;;;37.88;18.00;;;4.60;99.90;;;;;;20664835;28;20050;-41
2024/01/13 18:29:46;;;;;;;34.63;17.77;;;4.40;99.90;;;;;;20658431;28;20046;-41
2024/01/13 18:39:47;;;;;;;31.70;13.73;;;4.40;99.90;;;;;;20655755;28;20121;-43
2024/01/13 18:49:48;;;;;;;28.77;14.10;;;4.40;99.90;;;;;;20659571;28;20043;-42
2024/01/13 18:59:49;;;;;;;31.60;16.30;;;4.40;99.90;;;;;;20656851;28;20047;-43
2024/01/13 19:09:49;;;;;;;30.10;16.20;;;4.40;99.90;;;;;;20658057;28;20527;-42
2024/01/13 19:19:50;;;;;;;45.05;20.58;;;4.40;99.90;;;;;;20655363;28;20395;-43
2024/01/13 19:29:51;;;;;;;37.15;16.70;;;4.60;99.90;;;;;;20657158;28;20046;-43
2024/01/13 19:39:52;;;;;;;47.22;20.33;;;4.70;99.90;;;;;;20649997;28;20042;-43
2024/01/13 19:49:53;;;;;;;26.90;13.88;;;4.80;99.90;;;;;;20657362;28;20050;-42
2024/01/13 19:59:57;;;;;;;22.13;11.90;;;4.80;99.90;;;;;;20654740;28;20120;-43
2024/01/13 20:09:57;;;;;;;22.65;12.85;;;4.80;99.90;;;;;;20651649;28;20409;-43
2024/01/13 20:19:58;;;;;;;26.70;13.13;;;4.80;99.90;;;;;;20649290;28;20379;-42
2024/01/13 20:30:01;;;;;;;26.23;13.27;;;4.80;99.90;;;;;;20656342;28;20457;-42
2024/01/13 20:40:01;;;;;;;27.98;13.43;;;4.80;99.90;;;;;;20655656;28;20537;-43
2024/01/13 20:50:03;;;;;;;26.95;13.40;;;4.70;99.90;;;;;;20668034;28;20414;-43
2024/01/13 21:00:08;;;;;;;25.15;13.55;;;4.60;99.90;;;;;;20670819;28;20034;-42
2024/01/13 21:10:12;;;;;;;26.48;13.80;;;4.50;99.90;;;;;;20663874;28;20042;-43
2024/01/13 21:20:13;;;;;;;25.92;14.38;;;4.40;99.90;;;;;;20660198;28;20038;-43
2024/01/13 21:30:15;;;;;;;26.70;13.32;;;4.40;99.90;;;;;;20665611;28;20048;-44
2024/01/13 21:40:16;;;;;;;22.95;12.38;;;4.30;99.90;;;;;;20663569;28;20030;-42
2024/01/13 21:50:17;;;;;;;30.50;13.15;;;4.40;99.90;;;;;;20663185;28;20542;-43
2024/01/13 22:00:17;;;;;;;27.73;13.98;;;4.40;99.90;;;;;;20656538;28;21063;-43
2024/01/13 22:10:18;;;;;;;28.63;13.80;;;4.40;99.90;;;;;;20658180;28;20077;-42
2024/01/13 22:20:19;;;;;;;32.33;13.25;;;4.30;99.90;;;;;;20660048;28;20080;-42
2024/01/13 22:30:20;;;;;;;28.23;13.98;;;4.40;99.90;;;;;;20659312;28;20542;-42
2024/01/13 22:40:21;;;;;;;32.70;13.90;;;4.50;99.90;;;;;;20662644;28;20034;-42
2024/01/13 22:50:22;;;;;;;31.00;13.93;;;4.30;99.90;;;;;;20664831;28;20115;-43
2024/01/13 23:00:31;;;;;;;30.60;14.00;;;4.20;99.90;;;;;;20679341;28;20124;-42
2024/01/13 23:10:31;;;;;;;28.35;14.27;;;4.40;99.90;;;;;;20675112;28;20045;-42
2024/01/13 23:20:32;;;;;;;29.93;12.67;;;4.60;99.90;;;;;;20671614;28;20074;-42
2024/01/13 23:30:33;;;;;;;29.30;13.82;;;4.60;99.90;;;;;;20674262;28;21031;-42
2024/01/13 23:40:33;;;;;;;28.80;13.63;;;4.80;99.90;;;;;;20675131;28;20065;-43
2024/01/13 23:50:34;;;;;;;27.40;13.48;;;4.80;99.90;;;;;;20675181;28;20128;-43
